createdAt,value
2023-04-18T00:00:26.896Z,10.70
2023-04-18T00:03:16.039Z,9.00
2023-04-18T00:05:44.859Z,13.50
2023-04-18T00:08:12.333Z,9.60
2023-04-18T00:10:39.998Z,17.90
2023-04-18T00:13:07.705Z,19.40
2023-04-18T00:15:35.716Z,19.60
2023-04-18T00:18:06.360Z,18.70
2023-04-18T00:20:33.769Z,11.50
2023-04-18T00:23:02.150Z,12.60
2023-04-18T00:25:29.487Z,10.90
2023-04-18T00:27:57.276Z,11.50
2023-04-18T00:30:24.954Z,12.90
2023-04-18T00:32:52.553Z,12.30
2023-04-18T00:35:20.116Z,11.60
2023-04-18T00:37:47.440Z,9.30
2023-04-18T00:40:14.864Z,11.40
2023-04-18T00:42:42.217Z,13.30
2023-04-18T00:45:09.956Z,12.90
2023-04-18T00:47:37.335Z,16.80
2023-04-18T00:50:05.587Z,19.80
2023-04-18T00:52:36.104Z,10.20
2023-04-18T00:55:06.382Z,13.10
2023-04-18T00:57:34.036Z,14.40
2023-04-18T01:00:02.766Z,10.90
2023-04-18T01:02:31.397Z,10.90
2023-04-18T01:04:58.873Z,10.70
2023-04-18T01:07:27.058Z,10.40
2023-04-18T01:09:54.602Z,13.00
2023-04-18T01:12:21.943Z,12.80
2023-04-18T01:14:49.307Z,12.70
2023-04-18T01:17:17.682Z,10.90
2023-04-18T01:19:47.024Z,10.80
2023-04-18T01:22:15.273Z,9.90
2023-04-18T01:24:42.710Z,12.80
2023-04-18T01:27:13.723Z,14.80
2023-04-18T01:29:41.626Z,12.70
2023-04-18T01:32:09.099Z,11.60
2023-04-18T01:34:36.376Z,11.10
2023-04-18T01:37:03.766Z,11.20
2023-04-18T01:39:31.236Z,11.70
2023-04-18T01:41:58.676Z,12.00
2023-04-18T01:44:26.073Z,11.90
2023-04-18T01:46:53.378Z,13.40
2023-04-18T01:49:20.857Z,12.60
2023-04-18T01:51:48.207Z,10.40
2023-04-18T01:54:15.846Z,11.50
2023-04-18T01:56:43.567Z,11.70
2023-04-18T01:59:10.978Z,11.10
2023-04-18T02:01:38.453Z,11.60
2023-04-18T02:04:05.982Z,11.20
2023-04-18T02:06:33.400Z,9.80
2023-04-18T02:09:00.782Z,11.40
2023-04-18T02:11:28.068Z,12.10
2023-04-18T02:13:55.334Z,12.90
2023-04-18T02:16:22.737Z,12.70
2023-04-18T02:18:53.056Z,14.80
2023-04-18T02:21:22.079Z,13.30
2023-04-18T02:23:49.521Z,12.60
2023-04-18T02:26:16.913Z,9.80
2023-04-18T02:28:44.177Z,10.90
2023-04-18T02:31:15.009Z,10.40
2023-04-18T02:33:44.110Z,11.80
2023-04-18T02:36:13.287Z,10.30
2023-04-18T02:38:40.793Z,10.10
2023-04-18T02:41:08.299Z,11.40
2023-04-18T02:43:35.483Z,12.70
2023-04-18T02:46:02.879Z,19.60
2023-04-18T02:51:09.219Z,10.60
2023-04-18T02:53:36.518Z,16.20
2023-04-18T02:56:03.735Z,12.70
2023-04-18T02:58:31.182Z,15.20
2023-04-18T03:00:58.408Z,13.20
2023-04-18T03:03:26.043Z,13.40
2023-04-18T03:05:53.276Z,13.50
2023-04-18T03:08:20.525Z,14.30
2023-04-18T03:10:48.992Z,14.70
2023-04-18T03:13:17.029Z,20.90
2023-04-18T03:15:44.258Z,14.80
2023-04-18T03:18:12.795Z,12.40
2023-04-18T03:20:41.029Z,16.40
2023-04-18T03:23:08.604Z,12.50
2023-04-18T03:25:35.984Z,16.60
2023-04-18T03:28:03.145Z,12.50
2023-04-18T03:30:30.469Z,16.20
2023-04-18T03:32:58.855Z,16.70
2023-04-18T03:35:26.130Z,18.30
2023-04-18T03:37:53.313Z,16.10
2023-04-18T03:40:20.644Z,15.00
2023-04-18T03:42:47.781Z,16.50
2023-04-18T03:45:14.999Z,14.00
2023-04-18T03:47:42.204Z,17.20
2023-04-18T03:50:09.687Z,17.60
2023-04-18T03:52:36.864Z,16.50
2023-04-18T03:55:04.258Z,17.70
2023-04-18T03:57:31.880Z,15.00
2023-04-18T03:59:59.424Z,16.20
2023-04-18T04:02:26.674Z,18.30
2023-04-18T04:04:53.919Z,20.00
2023-04-18T04:07:21.221Z,22.00
2023-04-18T04:09:48.429Z,16.70
2023-04-18T04:12:15.816Z,16.70
2023-04-18T04:14:42.924Z,15.90
2023-04-18T04:17:10.220Z,17.00
2023-04-18T04:19:37.315Z,14.90
2023-04-18T04:22:04.426Z,14.40
2023-04-18T04:24:33.373Z,15.50
2023-04-18T04:27:01.613Z,15.80
2023-04-18T04:29:31.750Z,15.80
2023-04-18T04:31:59.765Z,15.10
2023-04-18T04:34:26.996Z,12.40
2023-04-18T04:36:55.050Z,16.70
2023-04-18T04:39:22.226Z,16.30
2023-04-18T04:41:49.864Z,15.20
2023-04-18T04:44:18.104Z,14.50
2023-04-18T04:46:45.489Z,19.40
2023-04-18T04:49:12.777Z,13.60
2023-04-18T04:51:40.391Z,14.50
2023-04-18T04:54:07.631Z,10.40
2023-04-18T04:56:34.990Z,14.90
2023-04-18T04:59:02.321Z,12.40
2023-04-18T05:01:32.643Z,13.60
2023-04-18T05:04:00.650Z,14.10
2023-04-18T05:06:28.178Z,14.60
2023-04-18T05:08:57.552Z,15.30
2023-04-18T05:11:24.695Z,12.80
2023-04-18T05:13:51.852Z,13.50
2023-04-18T05:16:19.041Z,13.70
2023-04-18T05:18:46.242Z,13.90
2023-04-18T05:21:13.779Z,18.30
2023-04-18T05:23:41.284Z,15.80
2023-04-18T05:26:08.591Z,12.20
2023-04-18T05:28:35.886Z,14.40
2023-04-18T05:31:03.201Z,13.10
2023-04-18T05:33:31.440Z,14.80
2023-04-18T05:35:58.900Z,13.30
2023-04-18T05:38:26.288Z,11.30
2023-04-18T05:40:56.095Z,15.50
2023-04-18T05:43:23.505Z,13.80
2023-04-18T05:45:52.807Z,13.40
2023-04-18T05:48:20.273Z,12.60
2023-04-18T05:50:47.496Z,14.40
2023-04-18T05:53:14.908Z,12.90
2023-04-18T05:55:42.094Z,12.40
2023-04-18T05:58:09.385Z,14.60
2023-04-18T06:00:36.606Z,13.60
2023-04-18T06:03:04.030Z,14.70
2023-04-18T06:05:32.126Z,13.90
2023-04-18T06:07:59.338Z,11.40
2023-04-18T06:10:26.488Z,11.30
2023-04-18T06:12:53.677Z,16.20
2023-04-18T06:15:20.854Z,13.30
2023-04-18T06:17:48.269Z,12.90
2023-04-18T06:20:15.541Z,14.60
2023-04-18T06:22:42.679Z,12.60
2023-04-18T06:25:10.252Z,12.60
2023-04-18T06:27:38.469Z,10.40
2023-04-18T06:30:06.233Z,15.20
2023-04-18T06:32:33.490Z,16.30
2023-04-18T06:35:00.931Z,14.10
2023-04-18T06:37:28.139Z,14.00
2023-04-18T06:39:55.470Z,15.20
2023-04-18T06:42:23.032Z,15.60
2023-04-18T06:44:52.928Z,13.70
2023-04-18T06:47:20.087Z,13.90
2023-04-18T06:49:47.372Z,10.50
2023-04-18T06:52:14.529Z,10.30
2023-04-18T06:54:41.628Z,12.60
2023-04-18T06:57:09.485Z,19.40
2023-04-18T06:59:37.555Z,13.60
2023-04-18T07:02:05.056Z,13.50
2023-04-18T07:04:32.420Z,10.10
2023-04-18T07:06:59.935Z,10.50
2023-04-18T07:09:27.289Z,14.60
2023-04-18T07:11:54.406Z,12.50
2023-04-18T07:14:24.602Z,13.10
2023-04-18T07:16:52.659Z,11.90
2023-04-18T07:19:19.862Z,13.20
2023-04-18T07:21:47.337Z,11.60
2023-04-18T07:24:14.668Z,13.50
2023-04-18T07:26:42.133Z,13.00
2023-04-18T07:29:09.468Z,11.40
2023-04-18T07:31:36.757Z,15.50
2023-04-18T07:34:04.904Z,12.20
2023-04-18T07:36:32.723Z,10.40
2023-04-18T07:39:01.796Z,14.50
2023-04-18T07:41:29.089Z,13.10
2023-04-18T07:43:56.298Z,8.60
2023-04-18T07:46:24.157Z,9.30
2023-04-18T07:48:51.531Z,10.40
2023-04-18T07:51:18.936Z,14.20
2023-04-18T07:53:46.116Z,11.90
2023-04-18T07:56:14.578Z,11.50
2023-04-18T07:58:41.755Z,11.30
2023-04-18T08:01:13.599Z,8.60
2023-04-18T08:03:41.963Z,12.20
2023-04-18T08:06:10.022Z,9.80
2023-04-18T08:08:37.286Z,13.60
2023-04-18T08:11:04.574Z,10.00
2023-04-18T08:13:31.826Z,12.10
2023-04-18T08:16:00.035Z,11.20
2023-04-18T08:18:27.331Z,7.60
2023-04-18T08:20:55.017Z,12.20
2023-04-18T08:23:22.288Z,13.20
2023-04-18T08:25:49.489Z,9.30
2023-04-18T08:28:17.165Z,12.10
2023-04-18T08:30:48.803Z,11.20
2023-04-18T08:33:16.550Z,8.90
2023-04-18T08:35:43.821Z,9.20
2023-04-18T08:38:11.050Z,11.60
2023-04-18T08:40:38.767Z,8.40
2023-04-18T08:43:09.496Z,9.30
2023-04-18T08:45:37.162Z,11.20
2023-04-18T08:48:04.537Z,11.40
2023-04-18T08:50:32.465Z,11.70
2023-04-18T08:53:01.513Z,9.70
2023-04-18T08:55:28.711Z,9.60
2023-04-18T08:57:56.533Z,12.40
2023-04-18T09:00:24.023Z,9.00
2023-04-18T09:02:56.918Z,9.80
2023-04-18T09:05:27.021Z,12.40
2023-04-18T09:07:56.614Z,8.60
2023-04-18T09:10:34.745Z,10.60
2023-04-18T09:13:03.775Z,9.10
2023-04-18T09:15:31.701Z,11.30
2023-04-18T09:18:03.399Z,11.30
2023-04-18T09:20:35.890Z,9.80
2023-04-18T09:23:16.737Z,9.20
2023-04-18T09:25:49.298Z,10.90
2023-04-18T09:28:30.315Z,11.30
2023-04-18T09:31:00.323Z,9.10
2023-04-18T09:33:36.844Z,9.00
2023-04-18T09:36:16.821Z,12.70
2023-04-18T09:38:46.635Z,8.60
2023-04-18T09:41:16.579Z,10.50
2023-04-18T09:43:46.301Z,10.10
2023-04-18T09:46:14.712Z,9.90
2023-04-18T09:48:42.149Z,11.30
2023-04-18T09:51:16.697Z,10.70
2023-04-18T09:53:45.227Z,8.60
2023-04-18T09:56:23.693Z,10.60
2023-04-18T09:58:56.648Z,9.70
2023-04-18T10:01:28.503Z,9.20
2023-04-18T10:03:57.652Z,8.80
2023-04-18T10:06:27.538Z,9.80
2023-04-18T10:08:55.697Z,8.20
2023-04-18T10:11:24.406Z,8.80
2023-04-18T10:13:56.123Z,9.50
2023-04-18T10:16:24.313Z,9.00
2023-04-18T10:18:51.883Z,9.10
2023-04-18T10:21:19.084Z,9.40
2023-04-18T10:23:49.021Z,9.60
2023-04-18T10:26:16.497Z,9.20
2023-04-18T10:28:58.158Z,9.00
2023-04-18T10:31:29.578Z,8.40
2023-04-18T10:34:05.134Z,9.40
2023-04-18T10:36:33.817Z,8.90
2023-04-18T10:39:21.429Z,8.80
2023-04-18T10:41:50.990Z,8.50
2023-04-18T10:44:23.365Z,10.00
2023-04-18T10:46:53.593Z,8.90
2023-04-18T10:49:30.342Z,9.10
2023-04-18T10:52:01.363Z,9.70
2023-04-18T10:54:46.715Z,13.80
2023-04-18T10:57:15.308Z,8.90
2023-04-18T10:59:44.622Z,8.90
2023-04-18T11:02:14.599Z,10.50
2023-04-18T11:04:42.024Z,9.40
2023-04-18T11:07:09.438Z,13.90
2023-04-18T11:09:38.703Z,10.00
2023-04-18T11:12:08.223Z,11.20
2023-04-18T11:14:42.257Z,8.50
2023-04-18T11:17:23.836Z,9.30
2023-04-18T11:19:59.310Z,10.10
2023-04-18T11:22:27.007Z,9.50
2023-04-18T11:25:15.669Z,9.70
2023-04-18T11:27:47.590Z,7.80
2023-04-18T11:30:16.127Z,9.10
2023-04-18T11:32:44.053Z,12.80
2023-04-18T11:35:13.098Z,10.10
2023-04-18T11:37:45.569Z,7.50
2023-04-18T11:40:14.402Z,9.30
2023-04-18T11:42:42.466Z,9.50
2023-04-18T11:45:13.999Z,11.70
2023-04-18T11:47:43.219Z,8.80
2023-04-18T11:50:13.102Z,7.30
2023-04-18T11:52:42.639Z,12.00
2023-04-18T11:55:24.032Z,7.10
2023-04-18T11:57:58.328Z,12.80
2023-04-18T12:00:31.517Z,7.20
2023-04-18T12:02:59.875Z,6.80
2023-04-18T12:05:36.030Z,6.10
2023-04-18T12:08:13.660Z,5.60
2023-04-18T12:10:48.824Z,6.10
2023-04-18T12:13:16.808Z,5.90
2023-04-18T12:15:45.810Z,5.60
2023-04-18T12:18:15.434Z,14.10
2023-04-18T12:20:50.711Z,7.70
2023-04-18T12:23:35.601Z,7.60
2023-04-18T12:26:05.140Z,5.30
2023-04-18T12:28:33.460Z,10.00
2023-04-18T12:31:01.184Z,9.40
2023-04-18T12:33:28.460Z,7.90
2023-04-18T12:35:56.285Z,5.70
2023-04-18T12:38:24.143Z,5.60
2023-04-18T12:40:52.457Z,8.30
2023-04-18T12:43:20.192Z,4.40
2023-04-18T12:45:47.659Z,5.40
2023-04-18T12:48:14.897Z,3.90
2023-04-18T12:50:42.094Z,3.90
2023-04-18T12:53:09.863Z,5.30
2023-04-18T12:55:37.184Z,5.40
2023-04-18T12:58:04.619Z,7.30
2023-04-18T13:00:32.978Z,8.20
2023-04-18T13:03:00.943Z,5.70
2023-04-18T13:05:32.900Z,5.50
2023-04-18T13:10:31.592Z,7.10
2023-04-18T13:12:58.856Z,8.40
2023-04-18T13:15:27.625Z,6.20
2023-04-18T13:17:56.406Z,6.90
2023-04-18T13:20:23.943Z,6.20
2023-04-18T13:22:51.067Z,8.50
2023-04-18T13:25:18.437Z,5.50
2023-04-18T13:27:50.230Z,11.30
2023-04-18T13:30:17.613Z,8.60
2023-04-18T13:32:44.901Z,8.50
2023-04-18T13:35:12.179Z,4.60
2023-04-18T13:37:39.820Z,8.60
2023-04-18T13:40:08.035Z,7.30
2023-04-18T13:45:21.995Z,9.40
2023-04-18T13:47:49.394Z,5.00
2023-04-18T13:50:16.782Z,6.00
2023-04-18T13:52:43.916Z,6.60
2023-04-18T13:55:11.546Z,5.20
2023-04-18T13:57:38.909Z,3.80
2023-04-18T14:00:09.319Z,7.70
2023-04-18T14:02:36.640Z,4.70
2023-04-18T14:05:04.200Z,6.40
2023-04-18T14:07:31.505Z,4.30
2023-04-18T14:09:58.633Z,4.00
2023-04-18T14:12:51.219Z,4.90
2023-04-18T14:18:54.602Z,4.20
2023-04-18T14:21:21.964Z,4.70
2023-04-18T14:23:49.650Z,4.80
2023-04-18T14:26:16.947Z,5.10
2023-04-18T14:28:44.616Z,4.60
2023-04-18T14:31:13.866Z,6.20
2023-04-18T14:33:41.746Z,4.80
2023-04-18T14:36:09.800Z,3.70
2023-04-18T14:38:37.313Z,3.50
2023-04-18T14:41:05.911Z,4.10
2023-04-18T14:43:33.167Z,3.90
2023-04-18T14:46:00.932Z,5.60
2023-04-18T14:48:28.214Z,7.30
2023-04-18T14:50:59.546Z,6.20
2023-04-18T14:53:27.371Z,6.30
2023-04-18T14:55:54.672Z,6.40
2023-04-18T14:58:22.079Z,8.20
2023-04-18T15:00:50.067Z,7.20
2023-04-18T15:03:17.475Z,5.20
2023-04-18T15:05:46.726Z,5.40
2023-04-18T15:08:14.861Z,5.80
2023-04-18T15:10:42.732Z,7.20
2023-04-18T15:13:11.347Z,8.90
2023-04-18T15:15:40.057Z,8.80
2023-04-18T15:18:08.669Z,12.70
2023-04-18T15:20:37.298Z,10.00
2023-04-18T15:23:05.291Z,9.70
2023-04-18T15:25:32.588Z,6.90
2023-04-18T15:27:59.943Z,8.40
2023-04-18T15:30:27.381Z,6.90
2023-04-18T15:32:54.738Z,7.50
2023-04-18T15:35:22.113Z,7.90
2023-04-18T15:37:49.399Z,8.60
2023-04-18T15:40:18.394Z,7.10
2023-04-18T15:42:46.098Z,6.70
2023-04-18T15:45:13.590Z,10.60
2023-04-18T15:47:41.978Z,8.00
2023-04-18T15:50:09.766Z,5.70
2023-04-18T15:52:37.258Z,7.00
2023-04-18T15:55:05.473Z,7.80
2023-04-18T15:57:32.752Z,7.60
2023-04-18T16:00:00.178Z,4.60
2023-04-18T16:02:28.146Z,7.40
2023-04-18T16:04:55.501Z,6.20
2023-04-18T16:07:22.805Z,7.20
2023-04-18T16:09:50.007Z,12.00
2023-04-18T16:12:17.296Z,6.50
2023-04-18T16:14:44.539Z,10.50
2023-04-18T16:17:11.764Z,7.40
2023-04-18T16:19:40.075Z,6.90
2023-04-18T16:22:07.743Z,8.40
2023-04-18T16:24:34.998Z,6.80
2023-04-18T16:27:02.987Z,9.70
2023-04-18T16:29:30.506Z,9.00
2023-04-18T16:31:57.723Z,11.50
2023-04-18T16:34:25.071Z,6.10
2023-04-18T16:36:52.627Z,10.60
2023-04-18T16:39:21.184Z,5.60
2023-04-18T16:41:48.438Z,5.10
2023-04-18T16:44:15.988Z,5.10
2023-04-18T16:46:43.474Z,7.00
2023-04-18T16:49:10.789Z,8.60
2023-04-18T16:51:38.473Z,6.50
2023-04-18T16:54:06.274Z,6.60
2023-04-18T16:56:34.301Z,6.30
2023-04-18T16:59:01.545Z,7.70
2023-04-18T17:01:28.849Z,5.80
2023-04-18T17:03:58.110Z,6.00
2023-04-18T17:06:25.721Z,7.20
2023-04-18T17:08:53.769Z,8.60
2023-04-18T17:11:21.335Z,6.60
2023-04-18T17:13:50.296Z,9.90
2023-04-18T17:16:18.115Z,10.20
2023-04-18T17:18:45.501Z,8.80
2023-04-18T17:21:12.998Z,9.40
2023-04-18T17:23:42.585Z,12.60
2023-04-18T17:26:10.072Z,5.90
2023-04-18T17:28:37.391Z,10.30
2023-04-18T17:31:04.814Z,9.30
2023-04-18T17:33:32.243Z,9.90
2023-04-18T17:35:59.566Z,8.00
2023-04-18T17:38:26.970Z,13.20
2023-04-18T17:41:02.167Z,7.50
2023-04-18T17:43:29.647Z,9.00
2023-04-18T17:46:01.322Z,6.90
2023-04-18T17:48:28.659Z,9.30
2023-04-18T17:50:56.206Z,6.70
2023-04-18T17:53:23.658Z,12.00
2023-04-18T17:55:52.560Z,10.10
2023-04-18T17:58:20.091Z,9.00
2023-04-18T18:00:48.063Z,9.70
2023-04-18T18:03:16.299Z,7.60
2023-04-18T18:05:46.555Z,8.30
2023-04-18T18:08:13.791Z,9.40
2023-04-18T18:10:41.531Z,11.80
2023-04-18T18:13:08.863Z,10.80
2023-04-18T18:15:36.146Z,9.30
2023-04-18T18:18:03.629Z,11.10
2023-04-18T18:20:31.090Z,11.10
2023-04-18T18:23:01.898Z,8.90
2023-04-18T18:25:29.286Z,9.70
2023-04-18T18:27:56.642Z,10.10
2023-04-18T18:30:24.205Z,9.70
2023-04-18T18:32:53.552Z,9.20
2023-04-18T18:35:20.929Z,11.10
2023-04-18T18:37:48.897Z,9.20
2023-04-18T18:40:16.936Z,10.50
2023-04-18T18:42:44.903Z,12.50
2023-04-18T18:45:12.296Z,13.00
2023-04-18T18:47:40.207Z,14.90
2023-04-18T18:50:08.119Z,13.80
2023-04-18T18:52:35.811Z,15.90
2023-04-18T18:55:04.279Z,17.40
2023-04-18T18:57:31.628Z,14.10
2023-04-18T18:59:59.297Z,13.70
2023-04-18T19:02:26.918Z,15.10
2023-04-18T19:04:54.876Z,14.60
2023-04-18T19:07:22.399Z,11.10
2023-04-18T19:09:49.931Z,14.20
2023-04-18T19:12:17.413Z,14.90
2023-04-18T19:14:46.976Z,20.40
2023-04-18T19:17:14.439Z,15.10
2023-04-18T19:19:43.134Z,20.20
2023-04-18T19:22:11.165Z,14.40
2023-04-18T19:24:38.684Z,14.70
2023-04-18T19:27:06.087Z,18.40
2023-04-18T19:29:33.567Z,12.40
2023-04-18T19:32:00.978Z,11.90
2023-04-18T19:34:28.627Z,13.00
2023-04-18T19:36:56.063Z,12.00
2023-04-18T19:39:23.846Z,13.80
2023-04-18T19:41:51.394Z,13.30
2023-04-18T19:44:19.018Z,14.60
2023-04-18T19:46:46.410Z,12.30
2023-04-18T19:49:14.206Z,11.30
2023-04-18T19:51:41.930Z,11.90
2023-04-18T19:54:09.373Z,10.90
2023-04-18T19:56:36.742Z,12.30
2023-04-18T19:59:06.166Z,9.50
2023-04-18T20:01:33.642Z,14.30
2023-04-18T20:04:01.314Z,12.20
2023-04-18T20:06:29.553Z,18.60
2023-04-18T20:08:57.097Z,17.90
2023-04-18T20:11:24.980Z,12.30
2023-04-18T20:13:54.694Z,10.20
2023-04-18T20:16:23.842Z,13.20
2023-04-18T20:18:52.994Z,10.20
2023-04-18T20:21:22.264Z,10.50
2023-04-18T20:23:49.618Z,12.80
2023-04-18T20:26:17.008Z,12.00
2023-04-18T20:28:44.271Z,10.40
2023-04-18T20:31:12.922Z,13.70
2023-04-18T20:33:40.447Z,10.70
2023-04-18T20:36:08.468Z,9.70
2023-04-18T20:38:37.172Z,12.20
2023-04-18T20:41:04.619Z,10.30
2023-04-18T20:43:36.843Z,13.40
2023-04-18T20:46:04.595Z,11.00
2023-04-18T20:48:31.850Z,16.70
2023-04-18T20:50:59.240Z,9.00
2023-04-18T20:53:27.256Z,13.00
2023-04-18T20:55:54.755Z,13.50
2023-04-18T20:58:22.515Z,10.60
2023-04-18T21:00:49.902Z,9.40
2023-04-18T21:03:17.532Z,9.10
2023-04-18T21:05:45.261Z,9.70
2023-04-18T21:08:12.756Z,13.10
2023-04-18T21:10:40.269Z,13.30
2023-04-18T21:13:09.311Z,9.30
2023-04-18T21:15:36.773Z,8.80
2023-04-18T21:18:04.195Z,9.50
2023-04-18T21:20:31.610Z,9.20
2023-04-18T21:22:58.851Z,8.20
2023-04-18T21:25:26.525Z,8.20
2023-04-18T21:27:53.831Z,7.90
2023-04-18T21:30:21.531Z,10.30
2023-04-18T21:32:51.618Z,11.10
2023-04-18T21:35:20.697Z,8.50
2023-04-18T21:37:49.328Z,10.10
2023-04-18T21:40:16.857Z,11.50
2023-04-18T21:42:44.836Z,7.10
2023-04-18T21:45:12.232Z,8.80
2023-04-18T21:47:39.711Z,10.80
2023-04-18T21:50:07.724Z,10.90
2023-04-18T21:52:34.965Z,12.90
2023-04-18T21:55:02.331Z,9.50
2023-04-18T21:57:29.702Z,9.60
2023-04-18T21:59:59.740Z,6.60
2023-04-18T22:02:27.777Z,6.10
2023-04-18T22:04:58.832Z,7.00
2023-04-18T22:07:26.179Z,6.90
2023-04-18T22:09:53.525Z,6.10
2023-04-18T22:12:20.870Z,10.60
2023-04-18T22:14:49.130Z,9.70
2023-04-18T22:17:16.506Z,7.70
2023-04-18T22:19:44.769Z,9.20
2023-04-18T22:22:12.261Z,11.50
2023-04-18T22:24:39.534Z,7.40
2023-04-18T22:27:07.249Z,7.50
2023-04-18T22:29:34.509Z,4.90
2023-04-18T22:32:02.025Z,10.20
2023-04-18T22:34:29.301Z,5.10
2023-04-18T22:36:56.683Z,7.90
2023-04-18T22:39:24.964Z,10.60
2023-04-18T22:41:52.343Z,5.30
2023-04-18T22:44:19.730Z,7.50
2023-04-18T22:46:48.358Z,7.80
2023-04-18T22:49:16.282Z,6.90
2023-04-18T22:51:44.131Z,10.10
2023-04-18T22:54:11.534Z,9.90
2023-04-18T22:56:39.171Z,6.50
2023-04-18T22:59:06.490Z,5.70
2023-04-18T23:01:34.061Z,7.50
2023-04-18T23:04:01.626Z,7.70
2023-04-18T23:06:30.186Z,4.60
2023-04-18T23:08:57.512Z,10.00
2023-04-18T23:11:26.898Z,5.80
2023-04-18T23:13:54.447Z,7.10
2023-04-18T23:16:21.993Z,5.80
2023-04-18T23:18:49.498Z,7.60
2023-04-18T23:21:17.659Z,7.50
2023-04-18T23:23:45.088Z,4.40
2023-04-18T23:26:14.467Z,5.10
2023-04-18T23:28:45.097Z,4.70
2023-04-18T23:31:12.586Z,4.00
2023-04-18T23:33:40.444Z,5.50
2023-04-18T23:36:08.291Z,5.80
2023-04-18T23:38:37.491Z,7.40
2023-04-18T23:41:04.980Z,5.20
2023-04-18T23:43:32.257Z,3.60
2023-04-18T23:45:59.706Z,4.30
2023-04-18T23:48:27.258Z,5.90
2023-04-18T23:50:54.753Z,5.70
2023-04-18T23:53:23.056Z,8.30
2023-04-18T23:55:51.103Z,4.10
2023-04-18T23:58:18.994Z,5.50
